PWSweather.com
Personal Weather Stations
Station Observations
SHAHALMS1
Eftra, Falkenberg, HA

EftraFalkenberg, HA

Lat: 56.85, Lon: 12.65

Elevation: 140

Station Type:

http://hem.passagen.se/risarp101

High Low Average
Temperature 52.0°F11.1°C 28.6°F-1.9°C 40.9°F4.9°C
Dew Point 25.5°F-3.6°C 13.3°F-10.4°C 19.7°F-6.8°C
Winds 14.6 mph 23.5 kmh 0.2 mph 0.3 kmh 6.0 mph ENE9.7 kmh ENE
Wind Gusts 27.2 mph43.8 kmh 5.0 mph8.0 kmh 13.0 mph20.9 kmh
Humidity 60% 33% 43%
Pressure 30.60 in1036.2 mb 30.45 in1031.2 mb -
Precipitation 0.00 in0.0 mm - -
Hour Temp Dew Point Humidity Winds Wind Gusts Pressure Precip Precip Rate Daily Precip Total
12:00 AM 32.0°F0.0°C 14.0°F-10.0°C 47% 0.6 mph E1.0 kmh E 7.5 mph12.1 kmh 30.48 in1032.2 mb 0.00 in0.0 mm 0.00 in0.0 mm 0.00 in0.0 mm
12:15 AM 31.6°F-0.2°C 14.2°F-9.9°C 48% 1.2 mph E1.9 kmh E 6.8 mph10.9 kmh 30.48 in1032.2 mb 0.00 in0.0 mm 0.00 in0.0 mm 0.00 in0.0 mm
12:30 AM 31.3°F-0.4°C 14.3°F-9.8°C 49% 1.9 mph E3.1 kmh E 6.4 mph10.3 kmh 30.48 in1032.2 mb 0.00 in0.0 mm 0.00 in0.0 mm 0.00 in0.0 mm
12:45 AM 30.6°F-0.8°C 13.6°F-10.2°C 49% 0.2 mph E0.3 kmh E 5.4 mph8.7 kmh 30.45 in1031.2 mb 0.00 in0.0 mm 0.00 in0.0 mm 0.00 in0.0 mm
01:00 AM 30.6°F-0.8°C 13.6°F-10.2°C 49% 1.8 mph ENE2.9 kmh ENE 6.8 mph10.9 kmh 30.51 in1033.2 mb 0.00 in0.0 mm 0.00 in0.0 mm 0.00 in0.0 mm
01:15 AM 30.2°F-1.0°C 13.3°F-10.4°C 49% 0.3 mph NE0.5 kmh NE 5.0 mph8.0 kmh 30.48 in1032.2 mb 0.00 in0.0 mm 0.00 in0.0 mm 0.00 in0.0 mm
01:30 AM 30.4°F-0.9°C 13.9°F-10.1°C 50% 2.2 mph NE3.5 kmh NE 8.9 mph14.3 kmh 30.48 in1032.2 mb 0.00 in0.0 mm 0.00 in0.0 mm 0.00 in0.0 mm
01:45 AM 30.4°F-0.9°C 14.4°F-9.8°C 51% 1.3 mph ENE2.1 kmh ENE 7.9 mph12.7 kmh 30.48 in1032.2 mb 0.00 in0.0 mm 0.00 in0.0 mm 0.00 in0.0 mm
02:00 AM 30.2°F-1.0°C 14.2°F-9.9°C 51% 2.6 mph ENE4.2 kmh ENE 8.9 mph14.3 kmh 30.48 in1032.2 mb 0.00 in0.0 mm 0.00 in0.0 mm 0.00 in0.0 mm
02:15 AM 30.0°F-1.1°C 14.5°F-9.7°C 52% 1.9 mph ENE3.1 kmh ENE 7.9 mph12.7 kmh 30.48 in1032.2 mb 0.00 in0.0 mm 0.00 in0.0 mm 0.00 in0.0 mm
02:30 AM 29.7°F-1.3°C 14.2°F-9.9°C 52% 2.6 mph E4.2 kmh E 6.8 mph10.9 kmh 30.48 in1032.2 mb 0.00 in0.0 mm 0.00 in0.0 mm 0.00 in0.0 mm
02:45 AM 29.5°F-1.4°C 14.0°F-10.0°C 52% 0.6 mph ENE1.0 kmh ENE 5.7 mph9.2 kmh 30.48 in1032.2 mb 0.00 in0.0 mm 0.00 in0.0 mm 0.00 in0.0 mm
03:00 AM 29.3°F-1.5°C 13.8°F-10.1°C 52% 0.7 mph ENE1.1 kmh ENE 5.4 mph8.7 kmh 30.45 in1031.2 mb 0.00 in0.0 mm 0.00 in0.0 mm 0.00 in0.0 mm
03:15 AM 29.1°F-1.6°C 14.1°F-9.9°C 53% 1.2 mph NE1.9 kmh NE 6.4 mph10.3 kmh 30.45 in1031.2 mb 0.00 in0.0 mm 0.00 in0.0 mm 0.00 in0.0 mm
03:30 AM 29.1°F-1.6°C 14.5°F-9.7°C 54% 0.9 mph NE1.4 kmh NE 5.7 mph9.2 kmh 30.45 in1031.2 mb 0.00 in0.0 mm 0.00 in0.0 mm 0.00 in0.0 mm
03:45 AM 29.3°F-1.5°C 15.5°F-9.2°C 56% 2.0 mph NE3.2 kmh NE 7.5 mph12.1 kmh 30.45 in1031.2 mb 0.00 in0.0 mm 0.00 in0.0 mm 0.00 in0.0 mm
04:00 AM 29.1°F-1.6°C 15.8°F-9.0°C 57% 1.2 mph NE1.9 kmh NE 6.1 mph9.8 kmh 30.48 in1032.2 mb 0.00 in0.0 mm 0.00 in0.0 mm 0.00 in0.0 mm
04:15 AM 28.9°F-1.7°C 15.6°F-9.1°C 57% 1.8 mph NE2.9 kmh NE 7.9 mph12.7 kmh 30.45 in1031.2 mb 0.00 in0.0 mm 0.00 in0.0 mm 0.00 in0.0 mm
04:30 AM 28.8°F-1.8°C 15.4°F-9.2°C 57% 0.7 mph NE1.1 kmh NE 5.4 mph8.7 kmh 30.45 in1031.2 mb 0.00 in0.0 mm 0.00 in0.0 mm 0.00 in0.0 mm
04:45 AM 28.8°F-1.8°C 15.4°F-9.2°C 57% 1.1 mph NE1.8 kmh NE 10.0 mph16.1 kmh 30.48 in1032.2 mb 0.00 in0.0 mm 0.00 in0.0 mm 0.00 in0.0 mm
05:00 AM 28.6°F-1.9°C 15.7°F-9.1°C 58% 1.0 mph E1.6 kmh E 6.8 mph10.9 kmh 30.48 in1032.2 mb 0.00 in0.0 mm 0.00 in0.0 mm 0.00 in0.0 mm
05:15 AM 28.8°F-1.8°C 15.8°F-9.0°C 58% 1.7 mph ENE2.7 kmh ENE 6.4 mph10.3 kmh 30.48 in1032.2 mb 0.00 in0.0 mm 0.00 in0.0 mm 0.00 in0.0 mm
05:30 AM 30.2°F-1.0°C 18.0°F-7.8°C 60% 3.4 mph ENE5.5 kmh ENE 11.5 mph18.5 kmh 30.48 in1032.2 mb 0.00 in0.0 mm 0.00 in0.0 mm 0.00 in0.0 mm
05:45 AM 31.3°F-0.4°C 19.0°F-7.2°C 60% 4.8 mph ENE7.7 kmh ENE 12.2 mph19.6 kmh 30.48 in1032.2 mb 0.00 in0.0 mm 0.00 in0.0 mm 0.00 in0.0 mm
06:00 AM 32.0°F0.0°C 19.7°F-6.8°C 60% 4.2 mph ENE6.8 kmh ENE 12.2 mph19.6 kmh 30.48 in1032.2 mb 0.00 in0.0 mm 0.00 in0.0 mm 0.00 in0.0 mm
06:15 AM 32.0°F0.0°C 19.7°F-6.8°C 60% 6.4 mph NE10.3 kmh NE 12.5 mph20.1 kmh 30.48 in1032.2 mb 0.00 in0.0 mm 0.00 in0.0 mm 0.00 in0.0 mm
06:30 AM 33.6°F0.9°C 21.2°F-6.0°C 60% 6.0 mph ENE9.7 kmh ENE 14.0 mph22.5 kmh 30.48 in1032.2 mb 0.00 in0.0 mm 0.00 in0.0 mm 0.00 in0.0 mm
06:45 AM 36.0°F2.2°C 22.6°F-5.2°C 58% 7.9 mph ENE12.7 kmh ENE 16.1 mph25.9 kmh 30.51 in1033.2 mb 0.00 in0.0 mm 0.00 in0.0 mm 0.00 in0.0 mm
07:00 AM 37.8°F3.2°C 23.5°F-4.7°C 56% 6.3 mph ENE10.1 kmh ENE 12.9 mph20.8 kmh 30.51 in1033.2 mb 0.00 in0.0 mm 0.00 in0.0 mm 0.00 in0.0 mm
07:15 AM 38.8°F3.8°C 23.2°F-4.9°C 53% 7.0 mph ENE11.3 kmh ENE 15.0 mph24.1 kmh 30.51 in1033.2 mb 0.00 in0.0 mm 0.00 in0.0 mm 0.00 in0.0 mm
07:30 AM 39.7°F4.3°C 23.5°F-4.7°C 52% 7.8 mph ENE12.6 kmh ENE 13.6 mph21.9 kmh 30.51 in1033.2 mb 0.00 in0.0 mm 0.00 in0.0 mm 0.00 in0.0 mm
07:45 AM 40.5°F4.7°C 23.7°F-4.6°C 51% 8.0 mph E12.9 kmh E 17.5 mph28.2 kmh 30.51 in1033.2 mb 0.00 in0.0 mm 0.00 in0.0 mm 0.00 in0.0 mm
08:00 AM 41.5°F5.3°C 24.7°F-4.1°C 51% 7.9 mph E12.7 kmh E 14.0 mph22.5 kmh 30.51 in1033.2 mb 0.00 in0.0 mm 0.00 in0.0 mm 0.00 in0.0 mm
08:15 AM 42.1°F5.6°C 24.3°F-4.3°C 49% 8.8 mph E14.2 kmh E 20.0 mph32.2 kmh 30.54 in1034.2 mb 0.00 in0.0 mm 0.00 in0.0 mm 0.00 in0.0 mm
08:30 AM 42.1°F5.6°C 23.3°F-4.8°C 47% 10.4 mph E16.7 kmh E 20.8 mph33.5 kmh 30.54 in1034.2 mb 0.00 in0.0 mm 0.00 in0.0 mm 0.00 in0.0 mm
08:45 AM 42.6°F5.9°C 22.7°F-5.2°C 45% 14.6 mph E23.5 kmh E 27.2 mph43.8 kmh 30.54 in1034.2 mb 0.00 in0.0 mm 0.00 in0.0 mm 0.00 in0.0 mm
09:00 AM 43.3°F6.3°C 22.9°F-5.1°C 44% 11.3 mph E18.2 kmh E 21.1 mph34.0 kmh 30.54 in1034.2 mb 0.00 in0.0 mm 0.00 in0.0 mm 0.00 in0.0 mm
09:15 AM 44.2°F6.8°C 23.7°F-4.6°C 44% 9.1 mph E14.6 kmh E 20.8 mph33.5 kmh 30.54 in1034.2 mb 0.00 in0.0 mm 0.00 in0.0 mm 0.00 in0.0 mm
09:30 AM 44.2°F6.8°C 22.6°F-5.2°C 42% 10.5 mph E16.9 kmh E 21.1 mph34.0 kmh 30.54 in1034.2 mb 0.00 in0.0 mm 0.00 in0.0 mm 0.00 in0.0 mm
09:45 AM 45.0°F7.2°C 22.6°F-5.2°C 41% 8.9 mph ENE14.3 kmh ENE 17.5 mph28.2 kmh 30.54 in1034.2 mb 0.00 in0.0 mm 0.00 in0.0 mm 0.00 in0.0 mm
10:00 AM 45.3°F7.4°C 23.5°F-4.7°C 42% 8.1 mph ENE13.0 kmh ENE 15.7 mph25.3 kmh 30.54 in1034.2 mb 0.00 in0.0 mm 0.00 in0.0 mm 0.00 in0.0 mm
10:15 AM 45.5°F7.5°C 23.1°F-4.9°C 41% 10.1 mph E16.3 kmh E 17.5 mph28.2 kmh 30.51 in1033.2 mb 0.00 in0.0 mm 0.00 in0.0 mm 0.00 in0.0 mm
10:30 AM 45.9°F7.7°C 23.5°F-4.7°C 41% 10.1 mph ENE16.3 kmh ENE 20.8 mph33.5 kmh 30.51 in1033.2 mb 0.00 in0.0 mm 0.00 in0.0 mm 0.00 in0.0 mm
10:45 AM 46.8°F8.2°C 24.3°F-4.3°C 41% 8.6 mph ENE13.8 kmh ENE 20.4 mph32.8 kmh 30.51 in1033.2 mb 0.00 in0.0 mm 0.00 in0.0 mm 0.00 in0.0 mm
11:00 AM 46.9°F8.3°C 23.8°F-4.6°C 40% 10.1 mph E16.3 kmh E 19.7 mph31.7 kmh 30.51 in1033.2 mb 0.00 in0.0 mm 0.00 in0.0 mm 0.00 in0.0 mm
11:15 AM 46.8°F8.2°C 22.5°F-5.3°C 38% 11.0 mph E17.7 kmh E 22.2 mph35.7 kmh 30.54 in1034.2 mb 0.00 in0.0 mm 0.00 in0.0 mm 0.00 in0.0 mm
11:30 AM 47.3°F8.5°C 23.6°F-4.7°C 39% 9.1 mph ENE14.6 kmh ENE 16.5 mph26.6 kmh 30.51 in1033.2 mb 0.00 in0.0 mm 0.00 in0.0 mm 0.00 in0.0 mm
11:45 AM 47.8°F8.8°C 24.0°F-4.4°C 39% 10.4 mph E16.7 kmh E 21.1 mph34.0 kmh 30.51 in1033.2 mb 0.00 in0.0 mm 0.00 in0.0 mm 0.00 in0.0 mm
12:00 PM 48.4°F9.1°C 25.1°F-3.8°C 40% 10.1 mph E16.3 kmh E 21.1 mph34.0 kmh 30.51 in1033.2 mb 0.00 in0.0 mm 0.00 in0.0 mm 0.00 in0.0 mm
12:15 PM 48.4°F9.1°C 24.5°F-4.2°C 39% 9.8 mph ENE15.8 kmh ENE 20.4 mph32.8 kmh 30.51 in1033.2 mb 0.00 in0.0 mm 0.00 in0.0 mm 0.00 in0.0 mm
12:30 PM 48.7°F9.3°C 24.9°F-3.9°C 39% 10.4 mph E16.7 kmh E 20.8 mph33.5 kmh 30.51 in1033.2 mb 0.00 in0.0 mm 0.00 in0.0 mm 0.00 in0.0 mm
12:45 PM 48.9°F9.4°C 24.4°F-4.2°C 38% 8.4 mph ENE13.5 kmh ENE 16.1 mph25.9 kmh 30.51 in1033.2 mb 0.00 in0.0 mm 0.00 in0.0 mm 0.00 in0.0 mm
01:00 PM 48.9°F9.4°C 24.4°F-4.2°C 38% 8.2 mph NE13.2 kmh NE 16.5 mph26.6 kmh 30.51 in1033.2 mb 0.00 in0.0 mm 0.00 in0.0 mm 0.00 in0.0 mm
01:15 PM 49.3°F9.6°C 24.7°F-4.1°C 38% 8.2 mph ENE13.2 kmh ENE 16.1 mph25.9 kmh 30.51 in1033.2 mb 0.00 in0.0 mm 0.00 in0.0 mm 0.00 in0.0 mm
01:30 PM 49.8°F9.9°C 25.2°F-3.8°C 38% 8.8 mph E14.2 kmh E 16.5 mph26.6 kmh 30.51 in1033.2 mb 0.00 in0.0 mm 0.00 in0.0 mm 0.00 in0.0 mm
01:45 PM 50.2°F10.1°C 25.5°F-3.6°C 38% 7.8 mph E12.6 kmh E 21.5 mph34.6 kmh 30.51 in1033.2 mb 0.00 in0.0 mm 0.00 in0.0 mm 0.00 in0.0 mm
02:00 PM 50.7°F10.4°C 24.7°F-4.1°C 36% 7.1 mph NE11.4 kmh NE 12.2 mph19.6 kmh 30.51 in1033.2 mb 0.00 in0.0 mm 0.00 in0.0 mm 0.00 in0.0 mm
02:15 PM 50.7°F10.4°C 24.7°F-4.1°C 36% 8.6 mph ENE13.8 kmh ENE 20.4 mph32.8 kmh 30.51 in1033.2 mb 0.00 in0.0 mm 0.00 in0.0 mm 0.00 in0.0 mm
02:30 PM 51.4°F10.8°C 25.3°F-3.7°C 36% 9.1 mph E14.6 kmh E 17.2 mph27.7 kmh 30.51 in1033.2 mb 0.00 in0.0 mm 0.00 in0.0 mm 0.00 in0.0 mm
02:45 PM 51.8°F11.0°C 25.0°F-3.9°C 35% 7.4 mph ENE11.9 kmh ENE 13.6 mph21.9 kmh 30.51 in1033.2 mb 0.00 in0.0 mm 0.00 in0.0 mm 0.00 in0.0 mm
03:00 PM 51.8°F11.0°C 25.0°F-3.9°C 35% 6.3 mph NE10.1 kmh NE 12.5 mph20.1 kmh 30.51 in1033.2 mb 0.00 in0.0 mm 0.00 in0.0 mm 0.00 in0.0 mm
03:15 PM 51.8°F11.0°C 25.0°F-3.9°C 35% 7.0 mph ENE11.3 kmh ENE 13.6 mph21.9 kmh 30.51 in1033.2 mb 0.00 in0.0 mm 0.00 in0.0 mm 0.00 in0.0 mm
03:30 PM 51.8°F11.0°C 24.3°F-4.3°C 34% 7.9 mph ENE12.7 kmh ENE 15.7 mph25.3 kmh 30.51 in1033.2 mb 0.00 in0.0 mm 0.00 in0.0 mm 0.00 in0.0 mm
03:45 PM 51.8°F11.0°C 24.3°F-4.3°C 34% 7.0 mph NE11.3 kmh NE 11.8 mph19.0 kmh 30.51 in1033.2 mb 0.00 in0.0 mm 0.00 in0.0 mm 0.00 in0.0 mm
04:00 PM 51.8°F11.0°C 24.3°F-4.3°C 34% 6.8 mph ENE10.9 kmh ENE 17.2 mph27.7 kmh 30.51 in1033.2 mb 0.00 in0.0 mm 0.00 in0.0 mm 0.00 in0.0 mm
04:15 PM 52.0°F11.1°C 24.4°F-4.2°C 34% 8.2 mph E13.2 kmh E 17.5 mph28.2 kmh 30.51 in1033.2 mb 0.00 in0.0 mm 0.00 in0.0 mm 0.00 in0.0 mm
04:30 PM 52.0°F11.1°C 24.4°F-4.2°C 34% 8.9 mph E14.3 kmh E 17.5 mph28.2 kmh 30.51 in1033.2 mb 0.00 in0.0 mm 0.00 in0.0 mm 0.00 in0.0 mm
04:45 PM 52.0°F11.1°C 24.4°F-4.2°C 34% 5.9 mph NE9.5 kmh NE 10.4 mph16.7 kmh 30.51 in1033.2 mb 0.00 in0.0 mm 0.00 in0.0 mm 0.00 in0.0 mm
05:00 PM 51.8°F11.0°C 23.6°F-4.7°C 33% 7.2 mph ENE11.6 kmh ENE 16.1 mph25.9 kmh 30.51 in1033.2 mb 0.00 in0.0 mm 0.00 in0.0 mm 0.00 in0.0 mm
05:15 PM 51.4°F10.8°C 23.3°F-4.8°C 33% 8.0 mph NE12.9 kmh NE 12.5 mph20.1 kmh 30.48 in1032.2 mb 0.00 in0.0 mm 0.00 in0.0 mm 0.00 in0.0 mm
05:30 PM 51.1°F10.6°C 22.9°F-5.1°C 33% 6.6 mph E10.6 kmh E 14.0 mph22.5 kmh 30.48 in1032.2 mb 0.00 in0.0 mm 0.00 in0.0 mm 0.00 in0.0 mm
05:45 PM 50.4°F10.2°C 22.3°F-5.4°C 33% 6.9 mph ENE11.1 kmh ENE 15.0 mph24.1 kmh 30.48 in1032.2 mb 0.00 in0.0 mm 0.00 in0.0 mm 0.00 in0.0 mm
06:00 PM 49.6°F9.8°C 21.7°F-5.7°C 33% 7.6 mph ENE12.2 kmh ENE 16.8 mph27.0 kmh 30.48 in1032.2 mb 0.00 in0.0 mm 0.00 in0.0 mm 0.00 in0.0 mm
06:15 PM 48.7°F9.3°C 20.9°F-6.2°C 33% 6.6 mph E10.6 kmh E 12.2 mph19.6 kmh 30.48 in1032.2 mb 0.00 in0.0 mm 0.00 in0.0 mm 0.00 in0.0 mm
06:30 PM 48.0°F8.9°C 20.2°F-6.6°C 33% 5.6 mph ENE9.0 kmh ENE 12.2 mph19.6 kmh 30.51 in1033.2 mb 0.00 in0.0 mm 0.00 in0.0 mm 0.00 in0.0 mm
06:45 PM 47.1°F8.4°C 19.5°F-6.9°C 33% 3.7 mph E6.0 kmh E 9.3 mph15.0 kmh 30.51 in1033.2 mb 0.00 in0.0 mm 0.00 in0.0 mm 0.00 in0.0 mm
07:00 PM 46.0°F7.8°C 18.5°F-7.5°C 33% 3.2 mph E5.1 kmh E 10.4 mph16.7 kmh 30.51 in1033.2 mb 0.00 in0.0 mm 0.00 in0.0 mm 0.00 in0.0 mm
07:15 PM 44.8°F7.1°C 18.1°F-7.7°C 34% 1.9 mph E3.1 kmh E 6.8 mph10.9 kmh 30.51 in1033.2 mb 0.00 in0.0 mm 0.00 in0.0 mm 0.00 in0.0 mm
07:30 PM 43.5°F6.4°C 17.0°F-8.3°C 34% 2.6 mph E4.2 kmh E 7.5 mph12.1 kmh 30.51 in1033.2 mb 0.00 in0.0 mm 0.00 in0.0 mm 0.00 in0.0 mm
07:45 PM 42.6°F5.9°C 16.2°F-8.8°C 34% 5.5 mph E8.9 kmh E 10.4 mph16.7 kmh 30.54 in1034.2 mb 0.00 in0.0 mm 0.00 in0.0 mm 0.00 in0.0 mm
08:00 PM 42.1°F5.6°C 16.4°F-8.7°C 35% 5.3 mph E8.5 kmh E 10.0 mph16.1 kmh 30.54 in1034.2 mb 0.00 in0.0 mm 0.00 in0.0 mm 0.00 in0.0 mm
08:15 PM 41.4°F5.2°C 15.7°F-9.1°C 35% 6.4 mph E10.3 kmh E 10.4 mph16.7 kmh 30.54 in1034.2 mb 0.00 in0.0 mm 0.00 in0.0 mm 0.00 in0.0 mm
08:30 PM 40.8°F4.9°C 15.9°F-8.9°C 36% 5.8 mph E9.3 kmh E 10.7 mph17.2 kmh 30.51 in1033.2 mb 0.00 in0.0 mm 0.00 in0.0 mm 0.00 in0.0 mm
08:45 PM 40.3°F4.6°C 16.0°F-8.9°C 37% 7.9 mph E12.7 kmh E 15.7 mph25.3 kmh 30.54 in1034.2 mb 0.00 in0.0 mm 0.00 in0.0 mm 0.00 in0.0 mm
09:01 PM 39.9°F4.4°C 16.3°F-8.7°C 38% 8.4 mph E13.5 kmh E 13.6 mph21.9 kmh 30.54 in1034.2 mb 0.00 in0.0 mm 0.00 in0.0 mm 0.00 in0.0 mm
09:15 PM 39.4°F4.1°C 15.8°F-9.0°C 38% 7.1 mph E11.4 kmh E 14.0 mph22.5 kmh 30.57 in1035.2 mb 0.00 in0.0 mm 0.00 in0.0 mm 0.00 in0.0 mm
09:30 PM 39.0°F3.9°C 16.1°F-8.8°C 39% 8.6 mph E13.8 kmh E 19.3 mph31.1 kmh 30.57 in1035.2 mb 0.00 in0.0 mm 0.00 in0.0 mm 0.00 in0.0 mm
09:45 PM 38.7°F3.7°C 15.8°F-9.0°C 39% 9.9 mph E15.9 kmh E 19.0 mph30.6 kmh 30.57 in1035.2 mb 0.00 in0.0 mm 0.00 in0.0 mm 0.00 in0.0 mm
10:00 PM 38.3°F3.5°C 16.1°F-8.8°C 40% 9.0 mph E14.5 kmh E 15.7 mph25.3 kmh 30.60 in1036.2 mb 0.00 in0.0 mm 0.00 in0.0 mm 0.00 in0.0 mm
10:15 PM 37.9°F3.3°C 15.7°F-9.1°C 40% 8.7 mph E14.0 kmh E 15.7 mph25.3 kmh 30.60 in1036.2 mb 0.00 in0.0 mm 0.00 in0.0 mm 0.00 in0.0 mm
10:30 PM 37.6°F3.1°C 15.4°F-9.2°C 40% 8.0 mph E12.9 kmh E 13.6 mph21.9 kmh 30.60 in1036.2 mb 0.00 in0.0 mm 0.00 in0.0 mm 0.00 in0.0 mm
10:45 PM 37.0°F2.8°C 14.9°F-9.5°C 40% 7.7 mph E12.4 kmh E 14.0 mph22.5 kmh 30.60 in1036.2 mb 0.00 in0.0 mm 0.00 in0.0 mm 0.00 in0.0 mm
11:00 PM 36.3°F2.4°C 14.3°F-9.8°C 40% 4.2 mph E6.8 kmh E 9.7 mph15.6 kmh 30.57 in1035.2 mb 0.00 in0.0 mm 0.00 in0.0 mm 0.00 in0.0 mm
11:15 PM 35.6°F2.0°C 14.2°F-9.9°C 41% 6.1 mph E9.8 kmh E 10.0 mph16.1 kmh 30.60 in1036.2 mb 0.00 in0.0 mm 0.00 in0.0 mm 0.00 in0.0 mm
11:30 PM 35.2°F1.8°C 13.9°F-10.1°C 41% 5.6 mph E9.0 kmh E 10.4 mph16.7 kmh 30.57 in1035.2 mb 0.00 in0.0 mm 0.00 in0.0 mm 0.00 in0.0 mm
11:45 PM 34.7°F1.5°C 13.9°F-10.1°C 42% 5.5 mph E8.9 kmh E 11.5 mph18.5 kmh 30.60 in1036.2 mb 0.00 in0.0 mm 0.00 in0.0 mm 0.00 in0.0 mm